sensor_id;sensor_type;location;lat;lon;timestamp;P1;durP1;ratioP1;P2;durP2;ratioP2
21000;SDS011;10658;50.920;12.238;2022-07-03T00:03:00;2.75;;;2.33;;
21000;SDS011;10658;50.920;12.238;2022-07-03T00:07:01;3.75;;;2.63;;
21000;SDS011;10658;50.920;12.238;2022-07-03T00:11:04;2.65;;;2.45;;
21000;SDS011;10658;50.920;12.238;2022-07-03T00:15:06;5.35;;;2.75;;
21000;SDS011;10658;50.920;12.238;2022-07-03T00:19:08;2.55;;;2.35;;
21000;SDS011;10658;50.920;12.238;2022-07-03T00:23:10;3.55;;;2.40;;
21000;SDS011;10658;50.920;12.238;2022-07-03T00:27:18;2.95;;;2.75;;
21000;SDS011;10658;50.920;12.238;2022-07-03T00:31:22;4.50;;;2.67;;
21000;SDS011;10658;50.920;12.238;2022-07-03T00:35:23;2.72;;;2.53;;
21000;SDS011;10658;50.920;12.238;2022-07-03T00:39:25;2.88;;;2.67;;
21000;SDS011;10658;50.920;12.238;2022-07-03T00:43:27;2.83;;;2.63;;
21000;SDS011;10658;50.920;12.238;2022-07-03T00:47:29;3.50;;;2.78;;
21000;SDS011;10658;50.920;12.238;2022-07-03T00:51:31;4.90;;;2.10;;
21000;SDS011;10658;50.920;12.238;2022-07-03T00:55:35;2.50;;;2.30;;
21000;SDS011;10658;50.920;12.238;2022-07-03T00:59:40;2.60;;;2.40;;
21000;SDS011;10658;50.920;12.238;2022-07-03T01:03:43;3.88;;;2.50;;
21000;SDS011;10658;50.920;12.238;2022-07-03T01:07:59;4.07;;;2.28;;
21000;SDS011;10658;50.920;12.238;2022-07-03T01:16:59;4.15;;;2.60;;
21000;SDS011;10658;50.920;12.238;2022-07-03T01:21:08;2.78;;;2.58;;
21000;SDS011;10658;50.920;12.238;2022-07-03T01:29:46;2.50;;;2.30;;
21000;SDS011;10658;50.920;12.238;2022-07-03T01:33:57;2.90;;;2.70;;
21000;SDS011;10658;50.920;12.238;2022-07-03T01:38:02;2.72;;;2.53;;
21000;SDS011;10658;50.920;12.238;2022-07-03T01:42:14;3.75;;;3.03;;
21000;SDS011;10658;50.920;12.238;2022-07-03T01:46:16;3.20;;;2.90;;
21000;SDS011;10658;50.920;12.238;2022-07-03T01:50:19;3.08;;;2.53;;
21000;SDS011;10658;50.920;12.238;2022-07-03T01:54:24;3.80;;;2.55;;
21000;SDS011;10658;50.920;12.238;2022-07-03T01:58:27;3.83;;;2.80;;
21000;SDS011;10658;50.920;12.238;2022-07-03T02:02:32;2.63;;;2.40;;
21000;SDS011;10658;50.920;12.238;2022-07-03T02:06:36;2.90;;;2.25;;
21000;SDS011;10658;50.920;12.238;2022-07-03T02:10:46;2.67;;;2.45;;
21000;SDS011;10658;50.920;12.238;2022-07-03T02:15:11;2.85;;;2.65;;
21000;SDS011;10658;50.920;12.238;2022-07-03T02:19:17;4.25;;;2.90;;
21000;SDS011;10658;50.920;12.238;2022-07-03T02:23:20;3.00;;;2.80;;
21000;SDS011;10658;50.920;12.238;2022-07-03T02:27:28;3.28;;;2.80;;
21000;SDS011;10658;50.920;12.238;2022-07-03T02:31:40;2.97;;;2.63;;
21000;SDS011;10658;50.920;12.238;2022-07-03T02:35:47;2.90;;;2.60;;
21000;SDS011;10658;50.920;12.238;2022-07-03T02:39:51;3.88;;;2.42;;
21000;SDS011;10658;50.920;12.238;2022-07-03T02:44:25;5.32;;;2.90;;
21000;SDS011;10658;50.920;12.238;2022-07-03T02:48:47;3.15;;;2.85;;
21000;SDS011;10658;50.920;12.238;2022-07-03T02:53:04;3.03;;;2.72;;
21000;SDS011;10658;50.920;12.238;2022-07-03T02:57:14;4.07;;;3.10;;
21000;SDS011;10658;50.920;12.238;2022-07-03T03:01:24;3.20;;;2.97;;
21000;SDS011;10658;50.920;12.238;2022-07-03T03:05:48;3.83;;;2.63;;
21000;SDS011;10658;50.920;12.238;2022-07-03T03:09:54;2.67;;;2.47;;
21000;SDS011;10658;50.920;12.238;2022-07-03T03:13:58;3.80;;;2.75;;
21000;SDS011;10658;50.920;12.238;2022-07-03T03:18:10;6.57;;;2.58;;
21000;SDS011;10658;50.920;12.238;2022-07-03T03:26:29;3.92;;;2.83;;
21000;SDS011;10658;50.920;12.238;2022-07-03T03:30:34;5.65;;;3.08;;
21000;SDS011;10658;50.920;12.238;2022-07-03T03:34:37;3.42;;;2.92;;
21000;SDS011;10658;50.920;12.238;2022-07-03T03:38:41;2.65;;;2.45;;
21000;SDS011;10658;50.920;12.238;2022-07-03T03:42:43;2.80;;;2.60;;
21000;SDS011;10658;50.920;12.238;2022-07-03T03:46:45;4.45;;;3.05;;
21000;SDS011;10658;50.920;12.238;2022-07-03T03:50:48;4.97;;;2.55;;
21000;SDS011;10658;50.920;12.238;2022-07-03T03:54:49;4.22;;;2.75;;
21000;SDS011;10658;50.920;12.238;2022-07-03T03:58:51;2.67;;;2.47;;
21000;SDS011;10658;50.920;12.238;2022-07-03T04:02:53;3.13;;;2.75;;
21000;SDS011;10658;50.920;12.238;2022-07-03T04:06:55;3.70;;;2.55;;
21000;SDS011;10658;50.920;12.238;2022-07-03T04:10:57;3.80;;;2.75;;
21000;SDS011;10658;50.920;12.238;2022-07-03T04:14:59;2.90;;;2.67;;
21000;SDS011;10658;50.920;12.238;2022-07-03T04:19:00;4.35;;;3.08;;
21000;SDS011;10658;50.920;12.238;2022-07-03T04:23:02;3.47;;;2.60;;
21000;SDS011;10658;50.920;12.238;2022-07-03T04:27:03;5.22;;;3.47;;
21000;SDS011;10658;50.920;12.238;2022-07-03T04:31:04;3.05;;;2.75;;
21000;SDS011;10658;50.920;12.238;2022-07-03T04:35:07;2.80;;;2.58;;
21000;SDS011;10658;50.920;12.238;2022-07-03T04:39:08;3.22;;;2.92;;
21000;SDS011;10658;50.920;12.238;2022-07-03T04:43:09;2.85;;;2.55;;
21000;SDS011;10658;50.920;12.238;2022-07-03T04:47:11;3.22;;;2.88;;
21000;SDS011;10658;50.920;12.238;2022-07-03T04:51:13;3.15;;;2.92;;
21000;SDS011;10658;50.920;12.238;2022-07-03T04:55:15;3.22;;;2.55;;
21000;SDS011;10658;50.920;12.238;2022-07-03T04:59:17;3.15;;;2.85;;
21000;SDS011;10658;50.920;12.238;2022-07-03T05:03:18;3.33;;;3.03;;
21000;SDS011;10658;50.920;12.238;2022-07-03T05:07:19;7.75;;;3.38;;
21000;SDS011;10658;50.920;12.238;2022-07-03T05:11:20;3.85;;;2.55;;
21000;SDS011;10658;50.920;12.238;2022-07-03T05:15:22;4.47;;;3.28;;
21000;SDS011;10658;50.920;12.238;2022-07-03T05:19:24;3.33;;;3.03;;
21000;SDS011;10658;50.920;12.238;2022-07-03T05:23:25;4.30;;;3.22;;
21000;SDS011;10658;50.920;12.238;2022-07-03T05:27:26;3.10;;;2.80;;
21000;SDS011;10658;50.920;12.238;2022-07-03T05:31:28;4.60;;;3.30;;
21000;SDS011;10658;50.920;12.238;2022-07-03T05:35:29;2.63;;;2.42;;
21000;SDS011;10658;50.920;12.238;2022-07-03T05:39:31;2.70;;;2.50;;
21000;SDS011;10658;50.920;12.238;2022-07-03T05:43:32;3.75;;;2.55;;
21000;SDS011;10658;50.920;12.238;2022-07-03T05:47:34;3.30;;;2.33;;
21000;SDS011;10658;50.920;12.238;2022-07-03T05:51:35;6.05;;;2.35;;
21000;SDS011;10658;50.920;12.238;2022-07-03T05:55:36;2.35;;;2.08;;
21000;SDS011;10658;50.920;12.238;2022-07-03T05:59:38;2.33;;;2.13;;
21000;SDS011;10658;50.920;12.238;2022-07-03T06:03:39;2.67;;;2.47;;
21000;SDS011;10658;50.920;12.238;2022-07-03T06:07:41;2.50;;;2.28;;
21000;SDS011;10658;50.920;12.238;2022-07-03T06:11:42;2.95;;;2.50;;
21000;SDS011;10658;50.920;12.238;2022-07-03T06:15:44;2.20;;;2.00;;
21000;SDS011;10658;50.920;12.238;2022-07-03T06:19:46;2.90;;;2.30;;
21000;SDS011;10658;50.920;12.238;2022-07-03T06:23:47;2.90;;;2.30;;
21000;SDS011;10658;50.920;12.238;2022-07-03T06:27:49;2.63;;;2.05;;
21000;SDS011;10658;50.920;12.238;2022-07-03T06:31:51;2.28;;;1.90;;
21000;SDS011;10658;50.920;12.238;2022-07-03T06:35:52;2.88;;;2.20;;
21000;SDS011;10658;50.920;12.238;2022-07-03T06:39:54;1.95;;;1.85;;
21000;SDS011;10658;50.920;12.238;2022-07-03T06:43:55;4.88;;;2.20;;
21000;SDS011;10658;50.920;12.238;2022-07-03T06:47:56;2.47;;;2.28;;
21000;SDS011;10658;50.920;12.238;2022-07-03T06:51:58;2.20;;;2.03;;
21000;SDS011;10658;50.920;12.238;2022-07-03T06:56:00;2.47;;;2.28;;
21000;SDS011;10658;50.920;12.238;2022-07-03T07:00:01;2.28;;;2.10;;
21000;SDS011;10658;50.920;12.238;2022-07-03T07:04:04;2.42;;;2.03;;
21000;SDS011;10658;50.920;12.238;2022-07-03T07:08:05;3.00;;;1.90;;
21000;SDS011;10658;50.920;12.238;2022-07-03T07:12:06;2.15;;;1.95;;
21000;SDS011;10658;50.920;12.238;2022-07-03T07:16:08;2.88;;;1.90;;
21000;SDS011;10658;50.920;12.238;2022-07-03T07:20:10;2.42;;;2.20;;
21000;SDS011;10658;50.920;12.238;2022-07-03T07:24:11;2.90;;;1.95;;
21000;SDS011;10658;50.920;12.238;2022-07-03T07:28:12;3.80;;;1.80;;
21000;SDS011;10658;50.920;12.238;2022-07-03T07:32:13;2.00;;;1.80;;
21000;SDS011;10658;50.920;12.238;2022-07-03T07:36:15;1.70;;;1.60;;
21000;SDS011;10658;50.920;12.238;2022-07-03T07:40:17;2.58;;;2.03;;
21000;SDS011;10658;50.920;12.238;2022-07-03T07:44:18;2.03;;;1.80;;
21000;SDS011;10658;50.920;12.238;2022-07-03T07:48:20;2.85;;;1.95;;
21000;SDS011;10658;50.920;12.238;2022-07-03T07:52:24;2.88;;;1.90;;
21000;SDS011;10658;50.920;12.238;2022-07-03T07:56:26;2.30;;;2.10;;
21000;SDS011;10658;50.920;12.238;2022-07-03T08:00:27;2.38;;;1.80;;
21000;SDS011;10658;50.920;12.238;2022-07-03T08:04:29;4.93;;;2.00;;
21000;SDS011;10658;50.920;12.238;2022-07-03T08:08:49;1.77;;;1.67;;
21000;SDS011;10658;50.920;12.238;2022-07-03T08:12:50;2.65;;;1.70;;
21000;SDS011;10658;50.920;12.238;2022-07-03T08:16:51;2.15;;;1.67;;
21000;SDS011;10658;50.920;12.238;2022-07-03T08:20:53;3.25;;;1.50;;
21000;SDS011;10658;50.920;12.238;2022-07-03T08:24:54;2.20;;;1.85;;
21000;SDS011;10658;50.920;12.238;2022-07-03T08:28:56;3.33;;;1.67;;
21000;SDS011;10658;50.920;12.238;2022-07-03T08:32:57;4.00;;;2.10;;
21000;SDS011;10658;50.920;12.238;2022-07-03T08:36:59;2.35;;;1.58;;
21000;SDS011;10658;50.920;12.238;2022-07-03T08:41:01;2.05;;;1.95;;
21000;SDS011;10658;50.920;12.238;2022-07-03T08:45:04;1.30;;;1.30;;
21000;SDS011;10658;50.920;12.238;2022-07-03T08:49:10;2.25;;;2.10;;
21000;SDS011;10658;50.920;12.238;2022-07-03T08:53:15;2.40;;;2.10;;
21000;SDS011;10658;50.920;12.238;2022-07-03T08:57:18;2.13;;;1.58;;
21000;SDS011;10658;50.920;12.238;2022-07-03T09:01:19;2.10;;;1.90;;
21000;SDS011;10658;50.920;12.238;2022-07-03T09:05:21;1.88;;;1.77;;
21000;SDS011;10658;50.920;12.238;2022-07-03T09:09:22;3.22;;;1.80;;
21000;SDS011;10658;50.920;12.238;2022-07-03T09:13:24;1.70;;;1.60;;
21000;SDS011;10658;50.920;12.238;2022-07-03T09:17:25;1.70;;;1.60;;
21000;SDS011;10658;50.920;12.238;2022-07-03T09:21:34;1.70;;;1.60;;
21000;SDS011;10658;50.920;12.238;2022-07-03T09:25:57;2.33;;;1.70;;
21000;SDS011;10658;50.920;12.238;2022-07-03T09:30:01;3.40;;;1.80;;
21000;SDS011;10658;50.920;12.238;2022-07-03T09:34:07;1.95;;;1.42;;
21000;SDS011;10658;50.920;12.238;2022-07-03T09:38:09;1.55;;;1.42;;
21000;SDS011;10658;50.920;12.238;2022-07-03T09:42:11;2.55;;;1.30;;
21000;SDS011;10658;50.920;12.238;2022-07-03T09:46:15;2.03;;;1.60;;
21000;SDS011;10658;50.920;12.238;2022-07-03T09:50:16;1.55;;;1.45;;
21000;SDS011;10658;50.920;12.238;2022-07-03T09:54:17;3.17;;;1.23;;
21000;SDS011;10658;50.920;12.238;2022-07-03T09:58:19;1.67;;;1.30;;
21000;SDS011;10658;50.920;12.238;2022-07-03T10:02:20;1.50;;;1.40;;
21000;SDS011;10658;50.920;12.238;2022-07-03T10:06:21;1.25;;;1.15;;
21000;SDS011;10658;50.920;12.238;2022-07-03T10:10:24;1.30;;;1.20;;
21000;SDS011;10658;50.920;12.238;2022-07-03T10:14:28;1.60;;;1.50;;
21000;SDS011;10658;50.920;12.238;2022-07-03T10:18:30;1.73;;;1.63;;
21000;SDS011;10658;50.920;12.238;2022-07-03T10:22:42;1.35;;;1.30;;
21000;SDS011;10658;50.920;12.238;2022-07-03T10:26:48;1.50;;;1.40;;
21000;SDS011;10658;50.920;12.238;2022-07-03T10:30:51;4.15;;;3.80;;
21000;SDS011;10658;50.920;12.238;2022-07-03T10:34:52;2.63;;;2.25;;
21000;SDS011;10658;50.920;12.238;2022-07-03T10:38:54;3.28;;;2.45;;
21000;SDS011;10658;50.920;12.238;2022-07-03T10:43:04;4.15;;;2.75;;
21000;SDS011;10658;50.920;12.238;2022-07-03T10:56:03;2.42;;;1.60;;
21000;SDS011;10658;50.920;12.238;2022-07-03T11:00:05;1.98;;;1.38;;
21000;SDS011;10658;50.920;12.238;2022-07-03T11:04:09;2.72;;;1.30;;
21000;SDS011;10658;50.920;12.238;2022-07-03T11:08:10;1.35;;;1.23;;
21000;SDS011;10658;50.920;12.238;2022-07-03T11:12:12;1.42;;;1.33;;
21000;SDS011;10658;50.920;12.238;2022-07-03T11:16:22;2.05;;;1.35;;
21000;SDS011;10658;50.920;12.238;2022-07-03T11:20:25;1.40;;;1.30;;
21000;SDS011;10658;50.920;12.238;2022-07-03T11:24:29;1.70;;;1.40;;
21000;SDS011;10658;50.920;12.238;2022-07-03T11:32:48;1.52;;;1.27;;
21000;SDS011;10658;50.920;12.238;2022-07-03T11:36:51;1.60;;;1.50;;
21000;SDS011;10658;50.920;12.238;2022-07-03T11:40:53;2.00;;;1.30;;
21000;SDS011;10658;50.920;12.238;2022-07-03T11:44:55;1.83;;;1.20;;
21000;SDS011;10658;50.920;12.238;2022-07-03T11:49:07;2.47;;;1.30;;
21000;SDS011;10658;50.920;12.238;2022-07-03T11:53:18;1.42;;;1.25;;
21000;SDS011;10658;50.920;12.238;2022-07-03T11:57:23;1.30;;;1.20;;
21000;SDS011;10658;50.920;12.238;2022-07-03T12:05:29;1.98;;;1.83;;
21000;SDS011;10658;50.920;12.238;2022-07-03T12:09:32;1.23;;;1.10;;
21000;SDS011;10658;50.920;12.238;2022-07-03T12:13:34;1.33;;;1.30;;
21000;SDS011;10658;50.920;12.238;2022-07-03T12:17:36;1.27;;;1.20;;
21000;SDS011;10658;50.920;12.238;2022-07-03T12:21:38;1.30;;;0.98;;
21000;SDS011;10658;50.920;12.238;2022-07-03T12:25:40;7.75;;;1.30;;
21000;SDS011;10658;50.920;12.238;2022-07-03T12:29:42;1.50;;;1.40;;
21000;SDS011;10658;50.920;12.238;2022-07-03T12:33:44;1.10;;;1.10;;
21000;SDS011;10658;50.920;12.238;2022-07-03T12:37:46;1.33;;;1.25;;
21000;SDS011;10658;50.920;12.238;2022-07-03T12:41:48;1.30;;;1.20;;
21000;SDS011;10658;50.920;12.238;2022-07-03T12:45:50;1.67;;;1.20;;
21000;SDS011;10658;50.920;12.238;2022-07-03T12:50:04;1.60;;;0.85;;
21000;SDS011;10658;50.920;12.238;2022-07-03T12:58:39;1.15;;;1.15;;
21000;SDS011;10658;50.920;12.238;2022-07-03T13:02:59;1.30;;;1.20;;
21000;SDS011;10658;50.920;12.238;2022-07-03T13:07:02;1.42;;;1.10;;
21000;SDS011;10658;50.920;12.238;2022-07-03T13:11:05;0.95;;;0.95;;
21000;SDS011;10658;50.920;12.238;2022-07-03T13:15:07;1.45;;;1.20;;
21000;SDS011;10658;50.920;12.238;2022-07-03T13:19:10;1.30;;;1.20;;
21000;SDS011;10658;50.920;12.238;2022-07-03T13:23:27;1.63;;;1.40;;
21000;SDS011;10658;50.920;12.238;2022-07-03T13:27:31;0.90;;;0.90;;
21000;SDS011;10658;50.920;12.238;2022-07-03T13:31:53;2.45;;;1.08;;
21000;SDS011;10658;50.920;12.238;2022-07-03T13:35:55;1.10;;;1.10;;
21000;SDS011;10658;50.920;12.238;2022-07-03T13:39:56;1.35;;;1.25;;
21000;SDS011;10658;50.920;12.238;2022-07-03T13:44:17;1.67;;;1.05;;
21000;SDS011;10658;50.920;12.238;2022-07-03T13:48:23;3.03;;;1.45;;
21000;SDS011;10658;50.920;12.238;2022-07-03T13:52:36;1.50;;;1.10;;
21000;SDS011;10658;50.920;12.238;2022-07-03T13:56:41;2.20;;;1.40;;
21000;SDS011;10658;50.920;12.238;2022-07-03T14:00:45;1.23;;;1.13;;
21000;SDS011;10658;50.920;12.238;2022-07-03T14:04:51;11.60;;;1.92;;
21000;SDS011;10658;50.920;12.238;2022-07-03T14:13:01;1.60;;;1.02;;
21000;SDS011;10658;50.920;12.238;2022-07-03T14:17:02;1.27;;;1.17;;
21000;SDS011;10658;50.920;12.238;2022-07-03T14:21:04;1.10;;;1.10;;
21000;SDS011;10658;50.920;12.238;2022-07-03T14:25:23;1.60;;;1.20;;
21000;SDS011;10658;50.920;12.238;2022-07-03T14:29:24;1.40;;;1.30;;
21000;SDS011;10658;50.920;12.238;2022-07-03T14:33:44;1.67;;;1.00;;
21000;SDS011;10658;50.920;12.238;2022-07-03T14:37:47;2.15;;;1.45;;
21000;SDS011;10658;50.920;12.238;2022-07-03T14:41:49;1.55;;;1.45;;
21000;SDS011;10658;50.920;12.238;2022-07-03T14:45:51;1.30;;;1.20;;
21000;SDS011;10658;50.920;12.238;2022-07-03T14:50:06;1.40;;;1.00;;
21000;SDS011;10658;50.920;12.238;2022-07-03T14:54:08;1.08;;;1.02;;
21000;SDS011;10658;50.920;12.238;2022-07-03T14:58:27;1.85;;;1.17;;
21000;SDS011;10658;50.920;12.238;2022-07-03T15:06:55;1.33;;;1.23;;
21000;SDS011;10658;50.920;12.238;2022-07-03T15:11:14;1.63;;;1.27;;
21000;SDS011;10658;50.920;12.238;2022-07-03T15:15:45;2.20;;;1.23;;
21000;SDS011;10658;50.920;12.238;2022-07-03T15:19:49;1.30;;;1.20;;
21000;SDS011;10658;50.920;12.238;2022-07-03T15:23:53;2.78;;;1.00;;
21000;SDS011;10658;50.920;12.238;2022-07-03T15:27:59;1.10;;;1.00;;
21000;SDS011;10658;50.920;12.238;2022-07-03T15:32:02;1.35;;;1.25;;
21000;SDS011;10658;50.920;12.238;2022-07-03T15:36:05;5.25;;;1.85;;
21000;SDS011;10658;50.920;12.238;2022-07-03T15:40:11;1.40;;;1.30;;
21000;SDS011;10658;50.920;12.238;2022-07-03T15:44:33;2.80;;;1.40;;
21000;SDS011;10658;50.920;12.238;2022-07-03T15:52:52;1.58;;;1.20;;
21000;SDS011;10658;50.920;12.238;2022-07-03T15:56:56;1.38;;;1.27;;
21000;SDS011;10658;50.920;12.238;2022-07-03T16:01:28;1.65;;;1.10;;
21000;SDS011;10658;50.920;12.238;2022-07-03T16:05:53;3.25;;;1.25;;
21000;SDS011;10658;50.920;12.238;2022-07-03T16:09:59;3.50;;;1.42;;
21000;SDS011;10658;50.920;12.238;2022-07-03T16:14:03;1.38;;;1.13;;
21000;SDS011;10658;50.920;12.238;2022-07-03T16:18:05;0.95;;;0.95;;
21000;SDS011;10658;50.920;12.238;2022-07-03T16:22:07;1.60;;;1.30;;
21000;SDS011;10658;50.920;12.238;2022-07-03T16:26:10;2.45;;;1.50;;
21000;SDS011;10658;50.920;12.238;2022-07-03T16:30:14;1.40;;;1.27;;
21000;SDS011;10658;50.920;12.238;2022-07-03T16:34:20;4.15;;;1.45;;
21000;SDS011;10658;50.920;12.238;2022-07-03T16:38:42;1.30;;;1.20;;
21000;SDS011;10658;50.920;12.238;2022-07-03T16:42:50;3.58;;;3.15;;
21000;SDS011;10658;50.920;12.238;2022-07-03T16:46:53;3.45;;;3.17;;
21000;SDS011;10658;50.920;12.238;2022-07-03T16:50:57;3.22;;;2.63;;
21000;SDS011;10658;50.920;12.238;2022-07-03T16:55:06;1.85;;;1.70;;
21000;SDS011;10658;50.920;12.238;2022-07-03T16:59:09;3.20;;;1.98;;
21000;SDS011;10658;50.920;12.238;2022-07-03T17:03:16;2.60;;;1.70;;
21000;SDS011;10658;50.920;12.238;2022-07-03T17:07:20;1.38;;;1.27;;
21000;SDS011;10658;50.920;12.238;2022-07-03T17:11:23;1.10;;;1.05;;
21000;SDS011;10658;50.920;12.238;2022-07-03T17:15:27;6.10;;;3.83;;
21000;SDS011;10658;50.920;12.238;2022-07-03T17:19:36;2.88;;;1.20;;
21000;SDS011;10658;50.920;12.238;2022-07-03T17:23:56;1.15;;;1.02;;
21000;SDS011;10658;50.920;12.238;2022-07-03T17:28:00;1.10;;;1.10;;
21000;SDS011;10658;50.920;12.238;2022-07-03T17:32:03;1.27;;;1.20;;
21000;SDS011;10658;50.920;12.238;2022-07-03T17:36:14;2.20;;;1.10;;
21000;SDS011;10658;50.920;12.238;2022-07-03T17:40:21;2.22;;;1.25;;
21000;SDS011;10658;50.920;12.238;2022-07-03T17:44:30;2.33;;;1.20;;
21000;SDS011;10658;50.920;12.238;2022-07-03T17:48:37;4.28;;;1.17;;
21000;SDS011;10658;50.920;12.238;2022-07-03T17:52:41;1.33;;;1.23;;
21000;SDS011;10658;50.920;12.238;2022-07-03T17:56:43;1.60;;;1.50;;
21000;SDS011;10658;50.920;12.238;2022-07-03T18:00:46;1.60;;;1.50;;
21000;SDS011;10658;50.920;12.238;2022-07-03T18:04:48;1.77;;;1.20;;
21000;SDS011;10658;50.920;12.238;2022-07-03T18:13:14;1.40;;;1.30;;
21000;SDS011;10658;50.920;12.238;2022-07-03T18:17:23;3.10;;;1.35;;
21000;SDS011;10658;50.920;12.238;2022-07-03T18:21:30;2.65;;;1.58;;
21000;SDS011;10658;50.920;12.238;2022-07-03T18:25:33;1.40;;;1.30;;
21000;SDS011;10658;50.920;12.238;2022-07-03T18:29:44;1.60;;;1.50;;
21000;SDS011;10658;50.920;12.238;2022-07-03T18:33:47;1.00;;;0.93;;
21000;SDS011;10658;50.920;12.238;2022-07-03T18:37:54;5.03;;;2.03;;
21000;SDS011;10658;50.920;12.238;2022-07-03T18:41:58;2.75;;;1.15;;
21000;SDS011;10658;50.920;12.238;2022-07-03T18:46:00;1.75;;;1.48;;
21000;SDS011;10658;50.920;12.238;2022-07-03T18:50:02;2.17;;;1.38;;
21000;SDS011;10658;50.920;12.238;2022-07-03T18:54:09;1.67;;;1.58;;
21000;SDS011;10658;50.920;12.238;2022-07-03T19:02:53;3.97;;;1.50;;
21000;SDS011;10658;50.920;12.238;2022-07-03T19:07:08;1.73;;;1.40;;
21000;SDS011;10658;50.920;12.238;2022-07-03T19:11:11;1.33;;;1.23;;
21000;SDS011;10658;50.920;12.238;2022-07-03T19:15:30;1.67;;;1.58;;
21000;SDS011;10658;50.920;12.238;2022-07-03T19:19:34;1.73;;;1.55;;
21000;SDS011;10658;50.920;12.238;2022-07-03T19:23:36;1.60;;;1.50;;
21000;SDS011;10658;50.920;12.238;2022-07-03T19:32:28;1.63;;;1.23;;
21000;SDS011;10658;50.920;12.238;2022-07-03T19:36:29;2.03;;;1.52;;
21000;SDS011;10658;50.920;12.238;2022-07-03T19:40:34;2.50;;;2.08;;
21000;SDS011;10658;50.920;12.238;2022-07-03T19:44:39;1.58;;;1.48;;
21000;SDS011;10658;50.920;12.238;2022-07-03T19:48:41;2.42;;;1.50;;
21000;SDS011;10658;50.920;12.238;2022-07-03T19:52:43;2.30;;;1.23;;
21000;SDS011;10658;50.920;12.238;2022-07-03T19:56:45;2.55;;;1.45;;
21000;SDS011;10658;50.920;12.238;2022-07-03T20:00:46;1.90;;;1.65;;
21000;SDS011;10658;50.920;12.238;2022-07-03T20:04:47;3.03;;;1.75;;
21000;SDS011;10658;50.920;12.238;2022-07-03T20:08:49;2.00;;;1.80;;
21000;SDS011;10658;50.920;12.238;2022-07-03T20:12:50;1.80;;;1.70;;
21000;SDS011;10658;50.920;12.238;2022-07-03T20:16:51;1.42;;;1.33;;
21000;SDS011;10658;50.920;12.238;2022-07-03T20:20:54;1.50;;;1.40;;
21000;SDS011;10658;50.920;12.238;2022-07-03T20:24:56;1.80;;;1.30;;
21000;SDS011;10658;50.920;12.238;2022-07-03T20:28:57;1.83;;;1.63;;
21000;SDS011;10658;50.920;12.238;2022-07-03T20:32:58;2.10;;;1.85;;
21000;SDS011;10658;50.920;12.238;2022-07-03T20:37:01;1.95;;;1.30;;
21000;SDS011;10658;50.920;12.238;2022-07-03T20:41:03;3.20;;;1.60;;
21000;SDS011;10658;50.920;12.238;2022-07-03T20:45:07;1.92;;;1.38;;
21000;SDS011;10658;50.920;12.238;2022-07-03T20:49:10;1.80;;;1.65;;
21000;SDS011;10658;50.920;12.238;2022-07-03T20:53:11;4.68;;;1.60;;
21000;SDS011;10658;50.920;12.238;2022-07-03T20:57:12;1.48;;;1.38;;
21000;SDS011;10658;50.920;12.238;2022-07-03T21:01:14;1.70;;;1.60;;
21000;SDS011;10658;50.920;12.238;2022-07-03T21:05:15;1.92;;;1.83;;
21000;SDS011;10658;50.920;12.238;2022-07-03T21:09:17;2.58;;;1.70;;
21000;SDS011;10658;50.920;12.238;2022-07-03T21:13:19;1.50;;;1.40;;
21000;SDS011;10658;50.920;12.238;2022-07-03T21:17:20;1.90;;;1.55;;
21000;SDS011;10658;50.920;12.238;2022-07-03T21:21:21;2.25;;;1.67;;
21000;SDS011;10658;50.920;12.238;2022-07-03T21:25:23;2.05;;;1.40;;
21000;SDS011;10658;50.920;12.238;2022-07-03T21:29:26;1.65;;;1.52;;
21000;SDS011;10658;50.920;12.238;2022-07-03T21:33:27;2.78;;;2.03;;
21000;SDS011;10658;50.920;12.238;2022-07-03T21:37:28;3.03;;;1.90;;
21000;SDS011;10658;50.920;12.238;2022-07-03T21:41:30;5.50;;;2.10;;
21000;SDS011;10658;50.920;12.238;2022-07-03T21:45:31;1.70;;;1.60;;
21000;SDS011;10658;50.920;12.238;2022-07-03T21:49:33;3.03;;;1.75;;
21000;SDS011;10658;50.920;12.238;2022-07-03T21:53:34;2.25;;;1.45;;
21000;SDS011;10658;50.920;12.238;2022-07-03T21:57:36;2.60;;;1.70;;
21000;SDS011;10658;50.920;12.238;2022-07-03T22:01:37;2.20;;;1.55;;
21000;SDS011;10658;50.920;12.238;2022-07-03T22:05:39;3.70;;;1.98;;
21000;SDS011;10658;50.920;12.238;2022-07-03T22:09:41;2.53;;;1.77;;
21000;SDS011;10658;50.920;12.238;2022-07-03T22:13:45;1.95;;;1.67;;
